Time;durP1;ratioP1;P1;durP2;ratioP2;P2;SDS_P1;SDS_P2;PMS_P1;PMS_P2;Temp;Humidity;BMP_temperature;BMP_pressure;BME280_temperature;BME280_humidity;BME280_pressure;Samples;Min_cycle;Max_cycle;Signal;HPM_P1;HPM_P2
2023/03/29 00:00:26;;;;;;;16.13;6.88;;;;;;;;;;4918387;28;20039;-69
2023/03/29 00:02:55;;;;;;;20.52;7.38;;;;;;;;;;4949219;28;20986;-70
2023/03/29 00:05:24;;;;;;;17.50;5.72;;;;;;;;;;4914782;28;20036;-68
2023/03/29 00:07:53;;;;;;;18.75;6.50;;;;;;;;;;4919852;28;20043;-69
2023/03/29 00:10:22;;;;;;;16.75;6.65;;;;;;;;;;4914714;28;20050;-66
2023/03/29 00:12:50;;;;;;;17.38;6.97;;;;;;;;;;4947943;28;22325;-68
2023/03/29 00:15:18;;;;;;;23.60;7.35;;;;;;;;;;4918342;28;20055;-66
2023/03/29 00:17:43;;;;;;;18.73;7.10;;;;;;;;;;4918954;28;20054;-71
2023/03/29 00:20:09;;;;;;;20.05;7.20;;;;;;;;;;4917173;28;20043;-70
2023/03/29 00:22:38;;;;;;;17.45;6.63;;;;;;;;;;4918963;28;20039;-69
2023/03/29 00:25:07;;;;;;;13.55;6.57;;;;;;;;;;4914810;28;20844;-68
2023/03/29 00:27:34;;;;;;;19.65;7.72;;;;;;;;;;4918784;28;20530;-67
2023/03/29 00:30:01;;;;;;;14.40;7.03;;;;;;;;;;4917746;28;20465;-70
2023/03/29 00:32:26;;;;;;;18.13;7.30;;;;;;;;;;4915153;28;20048;-69
2023/03/29 00:34:51;;;;;;;17.67;7.68;;;;;;;;;;4920034;28;22184;-69
2023/03/29 00:37:19;;;;;;;11.93;6.65;;;;;;;;;;4917243;28;20039;-70
2023/03/29 00:39:44;;;;;;;13.23;7.10;;;;;;;;;;4918706;28;20048;-68
2023/03/29 00:42:15;;;;;;;15.10;6.97;;;;;;;;;;4916923;28;20720;-69
2023/03/29 00:45:13;;;;;;;15.52;7.05;;;;;;;;;;4918575;28;20046;-69
2023/03/29 00:47:43;;;;;;;24.13;10.68;;;;;;;;;;4927408;28;20175;-67
2023/03/29 00:50:08;;;;;;;21.73;9.70;;;;;;;;;;4920041;28;20047;-67
2023/03/29 00:52:34;;;;;;;20.98;9.73;;;;;;;;;;4916734;28;20039;-70
2023/03/29 00:55:02;;;;;;;18.75;9.00;;;;;;;;;;4917677;28;20039;-68
2023/03/29 00:57:29;;;;;;;20.35;9.10;;;;;;;;;;4919885;28;20093;-69
2023/03/29 00:59:57;;;;;;;15.32;7.07;;;;;;;;;;4918137;28;20635;-69
2023/03/29 01:02:24;;;;;;;17.63;7.07;;;;;;;;;;4917069;28;20504;-69
2023/03/29 01:05:17;;;;;;;25.20;9.00;;;;;;;;;;4946673;28;20050;-70
2023/03/29 01:07:52;;;;;;;22.25;9.02;;;;;;;;;;4914266;28;20130;-69
2023/03/29 01:10:21;;;;;;;15.88;7.53;;;;;;;;;;4915991;28;20055;-69
2023/03/29 01:12:53;;;;;;;16.17;7.40;;;;;;;;;;4917812;28;20089;-68
2023/03/29 01:15:21;;;;;;;16.70;7.82;;;;;;;;;;4916995;28;20122;-68
2023/03/29 01:17:52;;;;;;;22.50;8.93;;;;;;;;;;4918619;28;20173;-67
2023/03/29 01:20:23;;;;;;;21.25;9.57;;;;;;;;;;4914962;28;20043;-69
2023/03/29 01:22:59;;;;;;;18.10;9.25;;;;;;;;;;4919012;28;20048;-69
2023/03/29 01:25:27;;;;;;;17.83;7.82;;;;;;;;;;4913959;28;20074;-69
2023/03/29 01:27:56;;;;;;;14.70;7.50;;;;;;;;;;4918805;28;20039;-68
2023/03/29 01:30:28;;;;;;;15.93;8.30;;;;;;;;;;4918614;28;20043;-68
2023/03/29 01:32:55;;;;;;;13.02;7.25;;;;;;;;;;4948380;28;20622;-68
2023/03/29 01:35:28;;;;;;;12.55;7.45;;;;;;;;;;4916749;28;20070;-67
2023/03/29 01:37:57;;;;;;;12.75;7.18;;;;;;;;;;4913705;28;20122;-69
2023/03/29 01:40:26;;;;;;;15.32;6.95;;;;;;;;;;4916507;28;20142;-69
2023/03/29 01:42:57;;;;;;;18.50;8.25;;;;;;;;;;4916928;28;20043;-69
2023/03/29 01:45:30;;;;;;;14.95;7.68;;;;;;;;;;4915766;28;20035;-68
2023/03/29 01:48:10;;;;;;;15.13;8.45;;;;;;;;;;4920910;28;20059;-70
2023/03/29 01:50:54;;;;;;;14.75;9.13;;;;;;;;;;4920807;28;20040;-69
2023/03/29 01:53:20;;;;;;;12.75;7.13;;;;;;;;;;4920246;28;20100;-68
2023/03/29 01:55:48;;;;;;;16.20;6.55;;;;;;;;;;4919317;28;20039;-69
2023/03/29 01:58:15;;;;;;;16.70;7.90;;;;;;;;;;4921163;28;20039;-69
2023/03/29 02:00:41;;;;;;;15.27;7.20;;;;;;;;;;4916667;28;20048;-67
2023/03/29 02:03:07;;;;;;;14.20;7.28;;;;;;;;;;4921554;28;20047;-72
2023/03/29 02:05:34;;;;;;;13.95;7.30;;;;;;;;;;4921427;28;20042;-69
2023/03/29 02:08:01;;;;;;;10.82;6.50;;;;;;;;;;4919950;28;20793;-69
2023/03/29 02:10:26;;;;;;;15.15;7.60;;;;;;;;;;4921419;28;20039;-70
2023/03/29 02:12:52;;;;;;;16.02;7.32;;;;;;;;;;4924239;28;20092;-69
2023/03/29 02:15:18;;;;;;;14.75;7.97;;;;;;;;;;4949772;28;20093;-69
2023/03/29 02:17:45;;;;;;;13.85;8.10;;;;;;;;;;4915420;28;20518;-70
2023/03/29 02:20:23;;;;;;;16.10;8.10;;;;;;;;;;4919907;28;20044;-68
2023/03/29 02:22:53;;;;;;;14.65;7.97;;;;;;;;;;4999685;28;20154;-69
2023/03/29 02:25:18;;;;;;;15.50;7.32;;;;;;;;;;4930374;28;20043;-70
2023/03/29 02:27:44;;;;;;;15.52;8.07;;;;;;;;;;4920142;28;20039;-70
2023/03/29 02:30:13;;;;;;;16.63;8.25;;;;;;;;;;4917444;28;20042;-69
2023/03/29 02:32:58;;;;;;;15.63;8.13;;;;;;;;;;4951118;28;20079;-69
2023/03/29 02:35:37;;;;;;;19.08;10.05;;;;;;;;;;4919901;28;20048;-70
2023/03/29 02:38:05;;;;;;;15.48;7.95;;;;;;;;;;4919006;28;20035;-71
2023/03/29 02:40:32;;;;;;;14.98;7.45;;;;;;;;;;4919189;28;20047;-69
2023/03/29 02:43:00;;;;;;;16.73;9.13;;;;;;;;;;4917889;28;20051;-69
2023/03/29 02:45:28;;;;;;;16.08;8.50;;;;;;;;;;5001346;28;20548;-68
2023/03/29 02:47:55;;;;;;;18.13;9.10;;;;;;;;;;4930994;28;20047;-69
2023/03/29 02:50:22;;;;;;;20.33;8.73;;;;;;;;;;4917709;28;20125;-68
2023/03/29 02:52:52;;;;;;;15.73;7.88;;;;;;;;;;4920140;28;20042;-69
2023/03/29 02:55:20;;;;;;;16.25;8.23;;;;;;;;;;4932573;28;20040;-69
2023/03/29 02:57:45;;;;;;;15.13;7.97;;;;;;;;;;4918327;28;20040;-67
2023/03/29 03:00:11;;;;;;;20.75;9.80;;;;;;;;;;4922465;28;20054;-69
2023/03/29 03:02:36;;;;;;;15.68;9.63;;;;;;;;;;4928437;28;20046;-67
2023/03/29 03:05:02;;;;;;;17.55;9.18;;;;;;;;;;4919993;28;20035;-70
2023/03/29 03:07:28;;;;;;;24.27;10.35;;;;;;;;;;4918930;28;20063;-69
2023/03/29 03:09:53;;;;;;;22.85;11.40;;;;;;;;;;4919656;28;20119;-69
2023/03/29 03:12:18;;;;;;;21.55;11.35;;;;;;;;;;4919196;28;20160;-70
2023/03/29 03:14:46;;;;;;;25.45;13.20;;;;;;;;;;4899136;28;20043;-70
2023/03/29 03:17:11;;;;;;;25.80;11.57;;;;;;;;;;4923881;28;20203;-70
2023/03/29 03:19:38;;;;;;;25.95;12.57;;;;;;;;;;4916324;28;20047;-68
2023/03/29 03:22:08;;;;;;;22.27;11.45;;;;;;;;;;4917643;28;20669;-68
2023/03/29 03:24:34;;;;;;;31.42;13.90;;;;;;;;;;4922598;28;20055;-68
2023/03/29 03:26:59;;;;;;;28.08;14.27;;;;;;;;;;4911956;28;20055;-67
2023/03/29 03:29:25;;;;;;;27.58;15.35;;;;;;;;;;4918216;28;20932;-67
2023/03/29 03:31:51;;;;;;;20.33;10.32;;;;;;;;;;4918578;28;20158;-70
2023/03/29 03:34:18;;;;;;;21.75;10.85;;;;;;;;;;4919915;28;20043;-69
2023/03/29 03:36:43;;;;;;;21.80;11.30;;;;;;;;;;4919034;28;20035;-70
2023/03/29 03:39:08;;;;;;;26.50;13.50;;;;;;;;;;4932285;28;22358;-70
2023/03/29 03:41:34;;;;;;;31.80;13.40;;;;;;;;;;4931747;28;20058;-70
2023/03/29 03:43:59;;;;;;;20.60;11.48;;;;;;;;;;4913827;28;20035;-69
2023/03/29 03:46:25;;;;;;;21.67;12.02;;;;;;;;;;4918210;28;20047;-70
2023/03/29 03:48:50;;;;;;;25.25;11.38;;;;;;;;;;4919243;28;20096;-68
2023/03/29 03:51:18;;;;;;;20.13;9.60;;;;;;;;;;4917129;28;20110;-69
2023/03/29 03:53:44;;;;;;;22.63;12.30;;;;;;;;;;4917636;28;20236;-70
2023/03/29 03:56:09;;;;;;;23.00;11.68;;;;;;;;;;4918500;28;20035;-69
2023/03/29 03:58:35;;;;;;;25.10;10.48;;;;;;;;;;4923657;28;20031;-70
2023/03/29 04:01:00;;;;;;;22.40;11.75;;;;;;;;;;4918907;28;20039;-70
2023/03/29 04:03:26;;;;;;;27.23;12.80;;;;;;;;;;4904812;28;20045;-70
2023/03/29 04:05:54;;;;;;;29.13;14.35;;;;;;;;;;4947742;28;20043;-70
2023/03/29 04:08:21;;;;;;;28.00;13.15;;;;;;;;;;4912658;28;20105;-69
2023/03/29 04:10:53;;;;;;;24.05;11.13;;;;;;;;;;4920908;28;20039;-70
2023/03/29 04:13:18;;;;;;;20.60;10.88;;;;;;;;;;4933922;28;20159;-69
2023/03/29 04:15:48;;;;;;;22.02;11.23;;;;;;;;;;4919526;28;20039;-70
2023/03/29 04:18:14;;;;;;;20.58;10.27;;;;;;;;;;4902609;28;20035;-69
2023/03/29 04:20:44;;;;;;;18.02;9.57;;;;;;;;;;4917980;28;20036;-68
2023/03/29 04:23:10;;;;;;;14.98;9.15;;;;;;;;;;4919178;28;20094;-71
2023/03/29 04:25:35;;;;;;;19.75;10.65;;;;;;;;;;4918538;28;20035;-70
2023/03/29 04:28:03;;;;;;;20.95;9.52;;;;;;;;;;4916681;28;20083;-70
2023/03/29 04:30:28;;;;;;;24.15;9.20;;;;;;;;;;4917145;28;20130;-71
2023/03/29 04:32:56;;;;;;;16.83;8.50;;;;;;;;;;4917548;28;20039;-69
2023/03/29 04:35:23;;;;;;;18.55;10.18;;;;;;;;;;4947687;28;20121;-71
2023/03/29 04:37:53;;;;;;;19.67;11.73;;;;;;;;;;4946561;28;20038;-70
2023/03/29 04:40:19;;;;;;;18.98;10.75;;;;;;;;;;4917763;28;20039;-69
2023/03/29 04:42:48;;;;;;;16.17;10.55;;;;;;;;;;4918113;28;20047;-71
2023/03/29 04:45:16;;;;;;;19.35;10.25;;;;;;;;;;4931049;28;20044;-70
2023/03/29 04:47:42;;;;;;;23.00;10.95;;;;;;;;;;4918632;28;20808;-70
2023/03/29 04:50:07;;;;;;;29.35;13.70;;;;;;;;;;4916021;28;20055;-70
2023/03/29 04:52:33;;;;;;;22.55;12.05;;;;;;;;;;4917753;28;20043;-69
2023/03/29 04:55:00;;;;;;;26.88;13.45;;;;;;;;;;4912318;28;20138;-70
2023/03/29 04:57:25;;;;;;;26.17;12.02;;;;;;;;;;4917829;28;20039;-70
2023/03/29 04:59:50;;;;;;;26.80;12.70;;;;;;;;;;4914952;28;21165;-70
2023/03/29 05:02:18;;;;;;;21.75;12.57;;;;;;;;;;4915330;28;20043;-70
2023/03/29 05:04:43;;;;;;;22.38;12.45;;;;;;;;;;4916829;28;20031;-69
2023/03/29 05:07:10;;;;;;;20.15;11.07;;;;;;;;;;4917685;28;20052;-69
2023/03/29 05:09:36;;;;;;;20.55;11.75;;;;;;;;;;4916385;28;20035;-71
2023/03/29 05:12:01;;;;;;;20.33;11.50;;;;;;;;;;4916309;28;20044;-69
2023/03/29 05:14:27;;;;;;;23.63;11.57;;;;;;;;;;4919267;28;20070;-70
2023/03/29 05:16:52;;;;;;;22.02;10.20;;;;;;;;;;4921181;28;20108;-68
2023/03/29 05:19:20;;;;;;;20.83;8.55;;;;;;;;;;4921539;28;20039;-70
2023/03/29 05:21:51;;;;;;;17.38;8.60;;;;;;;;;;4936174;28;20046;-69
2023/03/29 05:24:17;;;;;;;22.08;11.27;;;;;;;;;;4949953;28;20501;-70
2023/03/29 05:26:43;;;;;;;22.23;10.82;;;;;;;;;;4917169;28;20043;-71
2023/03/29 05:29:09;;;;;;;14.45;8.60;;;;;;;;;;4920337;28;20093;-70
2023/03/29 05:31:36;;;;;;;18.25;7.78;;;;;;;;;;4920142;28;20488;-69
2023/03/29 05:34:03;;;;;;;16.65;7.72;;;;;;;;;;4920639;28;20081;-71
2023/03/29 05:36:28;;;;;;;17.13;8.23;;;;;;;;;;4902374;28;20038;-69
2023/03/29 05:38:55;;;;;;;20.00;8.82;;;;;;;;;;4917976;28;20042;-70
2023/03/29 05:41:22;;;;;;;19.70;8.45;;;;;;;;;;4917242;28;20126;-69
2023/03/29 05:43:47;;;;;;;17.38;8.23;;;;;;;;;;4917866;28;20150;-69
2023/03/29 05:46:15;;;;;;;20.73;8.27;;;;;;;;;;4920210;28;20815;-70
2023/03/29 05:48:41;;;;;;;12.00;7.63;;;;;;;;;;4916870;28;20047;-70
2023/03/29 05:51:07;;;;;;;18.38;8.07;;;;;;;;;;4915961;28;20213;-71
2023/03/29 05:53:32;;;;;;;20.38;8.65;;;;;;;;;;4949166;28;20831;-71
2023/03/29 05:56:00;;;;;;;22.63;8.20;;;;;;;;;;4918100;28;20400;-69
2023/03/29 05:58:27;;;;;;;20.25;7.75;;;;;;;;;;4917549;28;20081;-71
2023/03/29 06:00:52;;;;;;;21.27;8.32;;;;;;;;;;4922039;28;20093;-69
2023/03/29 06:03:19;;;;;;;18.23;7.95;;;;;;;;;;4920305;28;20440;-70
2023/03/29 06:05:45;;;;;;;21.25;8.55;;;;;;;;;;4913362;28;20049;-70
2023/03/29 06:08:11;;;;;;;21.08;8.25;;;;;;;;;;4907475;28;20055;-70
2023/03/29 06:10:39;;;;;;;16.48;8.07;;;;;;;;;;4982733;28;20697;-71
2023/03/29 06:13:07;;;;;;;13.98;7.47;;;;;;;;;;4920408;28;20047;-71
2023/03/29 06:15:33;;;;;;;15.93;8.07;;;;;;;;;;4919029;28;20068;-71
2023/03/29 06:17:59;;;;;;;13.02;7.85;;;;;;;;;;4898311;28;20076;-71
2023/03/29 06:20:27;;;;;;;16.80;8.15;;;;;;;;;;4920764;28;20047;-71
2023/03/29 06:22:54;;;;;;;16.40;8.05;;;;;;;;;;4916968;28;20043;-71
2023/03/29 06:25:20;;;;;;;18.58;8.07;;;;;;;;;;4949243;28;20042;-71
2023/03/29 06:27:46;;;;;;;16.58;7.93;;;;;;;;;;4918889;28;20214;-72
2023/03/29 06:30:14;;;;;;;19.25;8.50;;;;;;;;;;4916297;28;20043;-70
2023/03/29 06:32:40;;;;;;;15.95;8.50;;;;;;;;;;4921331;28;20182;-71
2023/03/29 06:35:06;;;;;;;17.17;8.43;;;;;;;;;;4919283;28;20521;-66
2023/03/29 06:37:37;;;;;;;19.67;8.63;;;;;;;;;;4921066;28;20040;-66
2023/03/29 06:40:08;;;;;;;18.35;8.02;;;;;;;;;;4924006;28;20050;-66
2023/03/29 06:42:36;;;;;;;17.92;8.32;;;;;;;;;;4930413;28;20050;-65
2023/03/29 06:45:01;;;;;;;20.58;8.35;;;;;;;;;;4922219;28;20039;-66
2023/03/29 06:47:29;;;;;;;20.60;9.02;;;;;;;;;;4920397;28;20097;-66
2023/03/29 06:49:55;;;;;;;22.00;8.60;;;;;;;;;;4920651;28;20632;-66
2023/03/29 06:52:21;;;;;;;24.75;8.77;;;;;;;;;;4919239;28;20043;-66
2023/03/29 06:54:46;;;;;;;23.17;9.75;;;;;;;;;;4920463;28;20043;-67
2023/03/29 06:57:11;;;;;;;23.48;9.43;;;;;;;;;;4919850;28;20047;-68
2023/03/29 06:59:37;;;;;;;19.75;9.43;;;;;;;;;;4917778;28;20044;-67
2023/03/29 07:02:05;;;;;;;21.20;10.90;;;;;;;;;;4921574;28;20046;-65
2023/03/29 07:04:33;;;;;;;29.02;10.73;;;;;;;;;;4951500;28;20047;-66
2023/03/29 07:07:03;;;;;;;19.52;9.23;;;;;;;;;;4922202;28;20480;-66
2023/03/29 07:09:28;;;;;;;22.00;9.20;;;;;;;;;;4921415;28;20058;-67
2023/03/29 07:11:54;;;;;;;17.40;9.27;;;;;;;;;;4923090;28;20043;-67
2023/03/29 07:14:20;;;;;;;24.38;10.52;;;;;;;;;;4920762;28;20046;-67
2023/03/29 07:16:45;;;;;;;20.00;9.30;;;;;;;;;;4919297;28;21864;-67
2023/03/29 07:19:11;;;;;;;20.90;9.65;;;;;;;;;;4919672;28;20049;-68
2023/03/29 07:21:36;;;;;;;25.10;10.95;;;;;;;;;;4916027;28;20952;-66
2023/03/29 07:24:03;;;;;;;25.40;9.93;;;;;;;;;;4919088;28;20476;-70
2023/03/29 07:26:29;;;;;;;23.98;10.68;;;;;;;;;;4919921;28;22261;-71
2023/03/29 07:28:57;;;;;;;26.67;10.43;;;;;;;;;;4921025;28;20055;-71
2023/03/29 07:31:22;;;;;;;23.67;10.73;;;;;;;;;;4919930;28;20039;-72
2023/03/29 07:33:51;;;;;;;24.58;10.80;;;;;;;;;;4918285;28;20035;-70
2023/03/29 07:36:16;;;;;;;22.73;10.55;;;;;;;;;;4918964;28;20032;-71
2023/03/29 07:38:42;;;;;;;28.30;11.75;;;;;;;;;;4922064;28;20046;-71
2023/03/29 07:41:08;;;;;;;27.10;12.57;;;;;;;;;;4916884;28;20035;-72
2023/03/29 07:43:33;;;;;;;33.28;13.23;;;;;;;;;;4921643;28;20039;-71
2023/03/29 07:46:04;;;;;;;33.50;12.40;;;;;;;;;;4921188;28;20039;-71
2023/03/29 07:48:31;;;;;;;28.95;12.15;;;;;;;;;;4923173;28;20118;-71
2023/03/29 07:50:56;;;;;;;33.42;12.52;;;;;;;;;;4918770;28;20925;-69
2023/03/29 07:53:22;;;;;;;30.80;12.68;;;;;;;;;;4915408;28;20059;-71
2023/03/29 07:55:48;;;;;;;32.00;11.52;;;;;;;;;;4916105;28;20150;-71
2023/03/29 07:58:13;;;;;;;27.40;10.98;;;;;;;;;;4916857;28;20062;-70
2023/03/29 08:00:38;;;;;;;38.08;13.27;;;;;;;;;;4916492;28;20066;-70
2023/03/29 08:03:04;;;;;;;36.45;13.18;;;;;;;;;;4916942;28;20075;-70
2023/03/29 08:05:31;;;;;;;26.10;12.15;;;;;;;;;;4921439;28;20037;-71
2023/03/29 08:07:58;;;;;;;32.78;12.18;;;;;;;;;;4920981;28;20520;-71
2023/03/29 08:10:26;;;;;;;27.42;11.15;;;;;;;;;;4914114;28;21660;-71
2023/03/29 08:12:52;;;;;;;39.97;13.57;;;;;;;;;;4931013;28;20518;-72
2023/03/29 08:15:17;;;;;;;31.83;12.32;;;;;;;;;;4906856;28;20047;-70
2023/03/29 08:17:42;;;;;;;26.80;12.10;;;;;;;;;;4921750;28;20046;-71
2023/03/29 08:20:10;;;;;;;31.70;12.40;;;;;;;;;;4919076;28;20063;-71
2023/03/29 08:22:35;;;;;;;30.38;12.10;;;;;;;;;;4919701;28;20043;-72
2023/03/29 08:25:04;;;;;;;32.55;15.15;;;;;;;;;;4933041;28;20050;-70
2023/03/29 08:27:29;;;;;;;35.40;14.75;;;;;;;;;;4919526;28;20058;-71
2023/03/29 08:29:55;;;;;;;38.13;14.77;;;;;;;;;;4920357;28;20039;-71
2023/03/29 08:32:20;;;;;;;36.50;16.45;;;;;;;;;;4923545;28;20043;-72
2023/03/29 08:34:48;;;;;;;34.90;16.00;;;;;;;;;;4917790;28;20040;-72
2023/03/29 08:37:13;;;;;;;38.53;17.02;;;;;;;;;;4920623;28;20043;-73
2023/03/29 08:39:39;;;;;;;42.20;16.85;;;;;;;;;;4914226;28;20036;-71
2023/03/29 08:42:19;;;;;;;37.58;16.40;;;;;;;;;;4921194;28;20043;-71
2023/03/29 08:44:50;;;;;;;39.42;17.15;;;;;;;;;;4915026;28;20048;-71
2023/03/29 08:47:21;;;;;;;34.83;15.70;;;;;;;;;;4918438;28;20082;-71
2023/03/29 08:49:49;;;;;;;38.42;16.15;;;;;;;;;;4934003;28;20224;-71
2023/03/29 08:52:32;;;;;;;36.38;17.63;;;;;;;;;;4923582;28;20059;-72
2023/03/29 08:54:59;;;;;;;41.55;16.42;;;;;;;;;;4924314;28;20038;-70
2023/03/29 08:57:25;;;;;;;35.08;17.02;;;;;;;;;;4916073;28;20047;-67
2023/03/29 08:59:52;;;;;;;47.65;18.38;;;;;;;;;;4922749;28;20043;-71
2023/03/29 09:02:21;;;;;;;38.63;17.05;;;;;;;;;;4926857;28;20063;-72
2023/03/29 09:04:47;;;;;;;41.58;18.38;;;;;;;;;;4919863;28;20047;-71
2023/03/29 09:07:13;;;;;;;46.63;19.17;;;;;;;;;;4919818;28;20162;-72
2023/03/29 09:09:41;;;;;;;43.00;18.67;;;;;;;;;;4918591;28;20870;-71
2023/03/29 09:12:18;;;;;;;44.42;18.48;;;;;;;;;;4937086;28;22199;-72
2023/03/29 09:15:07;;;;;;;44.80;19.02;;;;;;;;;;4920885;28;20062;-72
2023/03/29 09:17:33;;;;;;;45.85;18.23;;;;;;;;;;4923918;28;20431;-72
2023/03/29 09:20:03;;;;;;;41.17;18.63;;;;;;;;;;4923586;28;20136;-71
2023/03/29 09:22:28;;;;;;;39.08;18.73;;;;;;;;;;4953152;28;20163;-73
2023/03/29 09:25:02;;;;;;;43.70;19.00;;;;;;;;;;4919101;28;20039;-73
2023/03/29 09:27:54;;;;;;;48.60;18.98;;;;;;;;;;4919922;28;20359;-72
2023/03/29 09:30:25;;;;;;;38.30;18.92;;;;;;;;;;4917917;28;20513;-73
2023/03/29 09:33:11;;;;;;;42.00;18.42;;;;;;;;;;4932860;28;20169;-72
2023/03/29 09:35:37;;;;;;;36.42;18.40;;;;;;;;;;4921245;28;20043;-73
2023/03/29 09:38:06;;;;;;;46.83;21.23;;;;;;;;;;4916300;28;20665;-71
2023/03/29 09:40:38;;;;;;;44.42;21.85;;;;;;;;;;4919492;28;22198;-71
2023/03/29 09:43:09;;;;;;;40.97;22.67;;;;;;;;;;4920003;28;20046;-70
2023/03/29 09:45:39;;;;;;;41.92;20.98;;;;;;;;;;4920610;28;20042;-72
2023/03/29 09:48:09;;;;;;;43.88;21.95;;;;;;;;;;4918399;28;20047;-71
2023/03/29 09:50:40;;;;;;;53.55;26.75;;;;;;;;;;4921087;28;20039;-70
2023/03/29 09:53:07;;;;;;;39.97;20.90;;;;;;;;;;4921144;28;20453;-73
2023/03/29 09:55:35;;;;;;;45.08;22.98;;;;;;;;;;4919153;28;20046;-71
2023/03/29 09:58:01;;;;;;;44.58;23.30;;;;;;;;;;4919541;28;20508;-72
2023/03/29 10:00:26;;;;;;;40.63;21.52;;;;;;;;;;4920953;28;20511;-72
2023/03/29 10:02:52;;;;;;;52.17;24.10;;;;;;;;;;4920823;28;20043;-72
2023/03/29 10:05:17;;;;;;;42.55;22.95;;;;;;;;;;4915709;28;20039;-72
2023/03/29 10:07:50;;;;;;;53.35;23.83;;;;;;;;;;4920231;28;20163;-72
2023/03/29 10:10:33;;;;;;;53.28;22.92;;;;;;;;;;4918533;28;20129;-72
2023/03/29 10:13:05;;;;;;;48.88;22.23;;;;;;;;;;4912880;28;20073;-72
2023/03/29 10:15:33;;;;;;;44.83;22.10;;;;;;;;;;4917741;28;20538;-74
2023/03/29 10:18:05;;;;;;;50.47;21.98;;;;;;;;;;4919765;28;20177;-73
2023/03/29 10:20:33;;;;;;;41.17;19.77;;;;;;;;;;4948757;28;20043;-72
2023/03/29 10:22:58;;;;;;;40.67;20.27;;;;;;;;;;4921077;28;20104;-73
2023/03/29 10:25:31;;;;;;;43.67;21.42;;;;;;;;;;4914238;28;20082;-72
2023/03/29 10:28:05;;;;;;;43.88;21.80;;;;;;;;;;4921710;28;20162;-71
2023/03/29 10:30:33;;;;;;;41.47;20.80;;;;;;;;;;4920290;28;20070;-71
2023/03/29 10:32:59;;;;;;;39.75;21.55;;;;;;;;;;4920452;28;20642;-72
2023/03/29 10:35:32;;;;;;;39.78;21.17;;;;;;;;;;4917801;28;20051;-72
2023/03/29 10:37:58;;;;;;;40.25;20.95;;;;;;;;;;4921560;28;20047;-65
2023/03/29 10:40:29;;;;;;;44.38;22.77;;;;;;;;;;4922285;28;22909;-67
2023/03/29 10:42:59;;;;;;;41.38;20.58;;;;;;;;;;4933323;28;20098;-66
2023/03/29 10:45:30;;;;;;;46.40;23.58;;;;;;;;;;4921074;28;20088;-67
2023/03/29 10:47:56;;;;;;;46.10;24.00;;;;;;;;;;4920331;28;20074;-66
2023/03/29 10:50:22;;;;;;;36.83;21.17;;;;;;;;;;4919145;28;20685;-66
2023/03/29 10:52:49;;;;;;;40.67;21.05;;;;;;;;;;4919271;28;20039;-66
2023/03/29 10:55:14;;;;;;;37.55;19.95;;;;;;;;;;4924492;28;20120;-66
2023/03/29 10:57:52;;;;;;;31.05;18.25;;;;;;;;;;4917754;28;20035;-66
2023/03/29 11:00:22;;;;;;;30.65;17.20;;;;;;;;;;4922184;28;20063;-65
2023/03/29 11:02:59;;;;;;;27.65;16.55;;;;;;;;;;4924327;28;22194;-66
2023/03/29 11:05:24;;;;;;;26.83;16.17;;;;;;;;;;4919426;28;20035;-66
2023/03/29 11:07:52;;;;;;;25.17;16.50;;;;;;;;;;4921762;28;20290;-66
2023/03/29 11:10:38;;;;;;;28.60;16.52;;;;;;;;;;4923387;28;20039;-65
2023/03/29 11:13:21;;;;;;;32.28;17.17;;;;;;;;;;4916997;28;20051;-66
2023/03/29 11:15:51;;;;;;;27.40;16.13;;;;;;;;;;4925138;28;20078;-67
2023/03/29 11:18:41;;;;;;;26.02;16.30;;;;;;;;;;4937816;28;20046;-66
2023/03/29 11:21:39;;;;;;;23.88;14.93;;;;;;;;;;4922459;28;20043;-67
2023/03/29 11:24:23;;;;;;;29.30;16.58;;;;;;;;;;4911147;28;20157;-66
2023/03/29 11:26:54;;;;;;;29.65;16.33;;;;;;;;;;4948807;28;20050;-66
2023/03/29 11:29:46;;;;;;;28.35;15.60;;;;;;;;;;4920172;28;20936;-67
2023/03/29 11:32:15;;;;;;;27.63;16.95;;;;;;;;;;4940870;28;20042;-67
2023/03/29 11:34:56;;;;;;;28.52;16.85;;;;;;;;;;4920519;28;20046;-66
2023/03/29 11:37:26;;;;;;;29.55;16.80;;;;;;;;;;4919202;28;20027;-66
2023/03/29 11:40:06;;;;;;;29.65;16.05;;;;;;;;;;4918423;28;20035;-65
2023/03/29 11:42:33;;;;;;;26.85;15.55;;;;;;;;;;4919990;28;20046;-65
2023/03/29 11:45:00;;;;;;;27.48;15.15;;;;;;;;;;4932801;28;20043;-66
2023/03/29 11:47:27;;;;;;;28.58;15.32;;;;;;;;;;4920384;28;20635;-65
2023/03/29 11:49:58;;;;;;;31.23;15.90;;;;;;;;;;4917921;28;20807;-65
2023/03/29 11:52:36;;;;;;;35.60;16.30;;;;;;;;;;4917529;28;20043;-66
2023/03/29 11:55:11;;;;;;;28.40;15.85;;;;;;;;;;4922409;28;20743;-65
2023/03/29 11:57:46;;;;;;;35.78;16.52;;;;;;;;;;4920280;28;20043;-66
2023/03/29 12:00:13;;;;;;;29.30;15.70;;;;;;;;;;4918955;28;20043;-64
2023/03/29 12:02:42;;;;;;;32.28;15.95;;;;;;;;;;4919213;28;20043;-64
2023/03/29 12:05:19;;;;;;;27.67;15.75;;;;;;;;;;4918122;28;20468;-66
2023/03/29 12:07:52;;;;;;;29.70;16.38;;;;;;;;;;4920992;28;20173;-66
2023/03/29 12:10:22;;;;;;;26.00;15.68;;;;;;;;;;4919397;28;20050;-66
2023/03/29 12:12:51;;;;;;;26.15;15.43;;;;;;;;;;4947543;28;20073;-65
2023/03/29 12:15:19;;;;;;;28.38;15.77;;;;;;;;;;4916075;28;20043;-65
2023/03/29 12:17:47;;;;;;;23.95;14.23;;;;;;;;;;4919405;28;20045;-67
2023/03/29 12:20:16;;;;;;;26.65;15.80;;;;;;;;;;4919122;28;20039;-67
2023/03/29 12:22:44;;;;;;;33.58;15.90;;;;;;;;;;4945241;28;20062;-65
2023/03/29 12:25:12;;;;;;;27.95;15.90;;;;;;;;;;4914278;28;20035;-66
2023/03/29 12:27:54;;;;;;;24.92;15.02;;;;;;;;;;4916869;28;20142;-65
2023/03/29 12:30:23;;;;;;;32.47;16.20;;;;;;;;;;4916569;28;20066;-66
2023/03/29 12:33:00;;;;;;;34.90;16.25;;;;;;;;;;4996374;28;20089;-66
2023/03/29 12:35:47;;;;;;;29.13;15.30;;;;;;;;;;4916952;28;20040;-65
2023/03/29 12:38:19;;;;;;;28.70;16.80;;;;;;;;;;4915685;28;20043;-66
2023/03/29 12:40:46;;;;;;;30.42;16.52;;;;;;;;;;4918094;28;20039;-65
2023/03/29 12:43:22;;;;;;;24.20;15.50;;;;;;;;;;4916135;28;20098;-65
2023/03/29 12:45:50;;;;;;;31.48;15.10;;;;;;;;;;4915383;28;20523;-66
2023/03/29 12:48:19;;;;;;;;;;;;;;;;;;4996212;28;21107;-65
2023/03/29 12:50:49;;;;;;;23.92;14.73;;;;;;;;;;4917807;28;19997;-66
2023/03/29 12:53:22;;;;;;;24.08;14.90;;;;;;;;;;5009130;28;20059;-67
2023/03/29 12:55:49;;;;;;;26.73;13.30;;;;;;;;;;4915018;28;20035;-65
2023/03/29 12:58:33;;;;;;;25.00;13.45;;;;;;;;;;4913960;28;20125;-66
2023/03/29 13:01:17;;;;;;;22.63;13.25;;;;;;;;;;4912958;28;20065;-65
2023/03/29 13:03:43;;;;;;;24.92;14.45;;;;;;;;;;4900131;28;20051;-66
2023/03/29 13:06:09;;;;;;;22.92;14.52;;;;;;;;;;4913580;28;20126;-65
2023/03/29 13:08:34;;;;;;;27.02;14.93;;;;;;;;;;4914555;28;20098;-66
2023/03/29 13:11:00;;;;;;;23.38;13.13;;;;;;;;;;4913783;28;20039;-65
2023/03/29 13:13:27;;;;;;;25.67;14.10;;;;;;;;;;4912217;28;20663;-66
2023/03/29 13:15:55;;;;;;;21.73;13.48;;;;;;;;;;4911848;28;20101;-65
2023/03/29 13:18:20;;;;;;;24.08;12.90;;;;;;;;;;4912748;28;20443;-65
2023/03/29 13:20:58;;;;;;;23.25;13.07;;;;;;;;;;4913806;28;20366;-66
2023/03/29 13:23:23;;;;;;;21.05;13.40;;;;;;;;;;4927167;28;20031;-65
2023/03/29 13:25:48;;;;;;;22.92;11.50;;;;;;;;;;4916794;28;20066;-66
2023/03/29 13:28:18;;;;;;;21.45;11.48;;;;;;;;;;4915438;28;20074;-65
2023/03/29 13:30:59;;;;;;;22.15;11.57;;;;;;;;;;4912332;28;20054;-65
2023/03/29 13:33:34;;;;;;;17.45;11.40;;;;;;;;;;4914336;28;20067;-66
2023/03/29 13:36:05;;;;;;;19.85;12.40;;;;;;;;;;4913905;28;20479;-64
2023/03/29 13:38:31;;;;;;;24.38;13.55;;;;;;;;;;4916776;28;20594;-65
2023/03/29 13:41:00;;;;;;;21.33;13.23;;;;;;;;;;4908686;28;20468;-65
2023/03/29 13:43:34;;;;;;;25.20;14.82;;;;;;;;;;4918717;28;20182;-65
2023/03/29 13:45:59;;;;;;;26.67;15.20;;;;;;;;;;4913022;28;20636;-66
2023/03/29 13:48:29;;;;;;;31.00;18.63;;;;;;;;;;4916941;28;20047;-66
2023/03/29 13:50:56;;;;;;;30.38;17.27;;;;;;;;;;4899571;28;20067;-64
2023/03/29 13:53:26;;;;;;;28.70;19.55;;;;;;;;;;4916100;28;20500;-66
2023/03/29 13:55:52;;;;;;;28.02;18.88;;;;;;;;;;4911993;28;20118;-65
2023/03/29 13:58:23;;;;;;;24.88;18.20;;;;;;;;;;4912398;28;20377;-66
2023/03/29 14:00:52;;;;;;;35.97;23.17;;;;;;;;;;4910055;28;20097;-63
2023/03/29 14:03:28;;;;;;;29.40;21.05;;;;;;;;;;4926548;28;20519;-64
2023/03/29 14:06:00;;;;;;;27.67;19.27;;;;;;;;;;4913453;28;20040;-65
2023/03/29 14:08:28;;;;;;;25.42;17.00;;;;;;;;;;4916828;28;20062;-66
2023/03/29 14:10:56;;;;;;;29.30;17.52;;;;;;;;;;4917364;28;20039;-66
2023/03/29 14:13:23;;;;;;;30.60;19.20;;;;;;;;;;4916085;28;20051;-66
2023/03/29 14:15:53;;;;;;;33.33;23.83;;;;;;;;;;4911688;28;20515;-65
2023/03/29 14:18:23;;;;;;;32.53;21.13;;;;;;;;;;4917149;28;20035;-65
2023/03/29 14:20:53;;;;;;;34.10;22.90;;;;;;;;;;4903981;28;20505;-65
2023/03/29 14:23:27;;;;;;;29.25;19.30;;;;;;;;;;4911873;28;20581;-64
2023/03/29 14:25:55;;;;;;;29.05;19.95;;;;;;;;;;4915877;28;20688;-64
2023/03/29 14:28:24;;;;;;;43.40;25.33;;;;;;;;;;4911846;28;20310;-65
2023/03/29 14:30:52;;;;;;;38.28;23.77;;;;;;;;;;4900770;28;20040;-65